NCAR-RAP Real-Time Weather Data

Output produced by METARs form (08 May 2021  16:13 UTC)
found at http://weather.rap.ucar.edu/surface/
 
KMEM 081554Z 20006KT 10SM SCT110 BKN250 17/11 A3011 RMK AO2 SLP194 T01720106
KMEM 081454Z 20006KT 10SM BKN050 BKN070 OVC100 17/09 A3013 RMK AO2 RAB11E38 SLP200 VCSH SE P0000 60000 T01670094 51024
KMEM 081354Z 17009KT 10SM OVC075 16/09 A3009 RMK AO2 PRESFR SLP188 T01610089
KMEM 081254Z 17007KT 10SM BKN075 OVC090 16/08 A3010 RMK AO2 SLP189 T01560083
KMEM 081154Z 16005KT 10SM SCT075 BKN100 OVC150 16/09 A3006 RMK AO2 SLP176 60000 T01610089 10172 20139 55000
KMEM 081054Z 16006KT 10SM BKN075 OVC120 16/08 A3006 RMK AO2 SLP175 T01610083
KMEM 080954Z 21006KT 10SM BKN120 BKN250 15/08 A3006 RMK AO2 SLP176 T01500083
KMEM 080854Z 19004KT 10SM BKN120 14/09 A3006 RMK AO2 SLP175 60000 T01440089 58006
KMEM 080754Z 00000KT 10SM FEW110 BKN250 16/07 A3007 RMK AO2 SLP180 T01610072
KMEM 080654Z 20005KT 10SM BKN110 OVC200 17/06 A3008 RMK AO2 RAE04 SLP184 P0000 T01720061
KMEM 080554Z 20005KT 10SM -RA FEW085 OVC100 17/06 A3008 RMK AO2 RAB53 SLP182 P0000 60000 T01670061 10194 20167 402220094 57003
KMEM 080454Z 19007KT 10SM OVC090 17/06 A3007 RMK AO2 RAB09E26 SLP180 P0000 T01670061
KMEM 080354Z 20004KT 10SM BKN095 17/04 A3009 RMK AO2 SLP187 T01720044
KMEM 080254Z 20005KT 10SM BKN150 17/05 A3009 RMK AO2 SLP185 T01720050 53004
KMEM 080154Z 20006KT 10SM BKN150 18/04 A3008 RMK AO2 SLP182 T01780044
KMEM 080054Z 21004KT 10SM SCT150 18/02 A3007 RMK AO2 SLP180 T01830022
KMEM 072354Z 20004KT 10SM SCT120 19/03 A3007 RMK AO2 SLP183 T01940028 10222 20194 58021
KMEM 072254Z 23006KT 10SM FEW120 21/02 A3011 RMK AO2 SLP194 T02060017
KMEM 072154Z 21008KT 10SM SCT120 21/04 A3012 RMK AO2 SLP198 T02110044
KMEM 072054Z 28006KT 10SM FEW120 FEW250 22/04 A3014 RMK AO2 SLP203 T02170039 56026
KMEM 071954Z 00000KT 10SM FEW120 21/01 A3015 RMK AO2 SLP209 T02110011
KMEM 071854Z VRB04KT 10SM CLR 21/03 A3019 RMK AO2 SLP220 T02060028
KMEM 071758Z VRB04KT 10SM CLR 19/03 A3021 RMK AO2 T01940033
KMEM 071754Z 10SM CLR 20/03 A3021 RMK AO2 PK WND 36028/1754 SLP229 T02000033 10206 20106 58005
KMEM 071654Z VRB04KT 10SM CLR 19/03 A3023 RMK AO2 SLP235 T01940033
KMEM 071601Z VRB05KT 10SM FEW055 19/04 A3024 RMK AO2 T01940039
KMEM 071554Z 06004KT 10SM FEW055 19/04 A3024 RMK AO2 SLP237 T01890039
KMEM 071520Z VRB05KT 10SM CLR 18/05 A3024 RMK AO2 T01830050
KMEM 071454Z 10SM CLR 18/05 A3023 RMK AO2 SLP235 T01830050 51009
KMEM 071354Z VRB03KT 10SM CLR 17/07 A3022 RMK AO2 SLP233 T01670067
KMEM 071254Z 00000KT 10SM CLR 13/08 A3022 RMK AO2 SLP231 T01330083
KMEM 071154Z 00000KT 10SM CLR 11/08 A3020 RMK AO2 SLP226 70031 T01060078 10150 20094 53019
KMEM 071054Z 29003KT 10SM CLR 09/07 A3018 RMK AO2 SLP218 T00940067
KMEM 070954Z 32003KT 10SM CLR 11/06 A3016 RMK AO2 SLP212 T01110061
KMEM 070854Z 02004KT 10SM CLR 12/07 A3015 RMK AO2 SLP206 T01170067 58005
KMEM 070754Z 02005KT 10SM CLR 13/07 A3015 RMK AO2 SLP209 T01280067
KMEM 070654Z AUTO 02008KT 10SM CLR 13/07 A3017 RMK AO2 SLP213 T01330072
KMEM 070554Z 01013KT 10SM CLR 15/08 A3016 RMK AO2 SLP211 T01500083 10206 20150 402440106 53017
KMEM 070454Z 35009KT 10SM CLR 16/12 A3013 RMK AO2 SLP199 T01610117
KMEM 070354Z 02005KT 10SM CLR 16/14 A3012 RMK AO2 SLP198 T01560139
KMEM 070254Z 00000KT 10SM CLR 17/13 A3011 RMK AO2 SLP194 T01670133 53021
KMEM 070154Z 04005KT 10SM CLR 18/13 A3009 RMK AO2 SLP186 T01780133
KMEM 070054Z 00000KT 10SM FEW100 19/13 A3006 RMK AO2 SLP176 T01890133
KMEM 062354Z VRB04KT 10SM FEW100 20/12 A3005 RMK AO2 SLP173 60031 T02000122 10244 20150 52009
KMEM 062254Z 25006KT 10SM CLR 21/12 A3004 RMK AO2 RAE00 SLP171 P0000 T02060122
KMEM 062209Z 26008KT 10SM SCT100 20/12 A3006 RMK AO2 LTG DSNT E-S RAE00 PRESRR P0000 T02000122
KMEM 062154Z 30011G24KT 10SM VCTS -RA SCT035CB BKN070 BKN090 19/10 A3003 RMK AO2 PK WND 34033/2109 WSHFT 2106 LTG DSNT E-SW RAB07 TSB09E45 SLP166 OCNL LTGCG S TS S MOV SE P0031 T01940100
KMEM 062151Z 27014G24KT 10SM VCTS -RA SCT035CB BKN070 BKN090 17/11 A3002 RMK AO2 PK WND 34033/2109 WSHFT 2106 LTG DSNT E-SW RAB07 TSB09E45 OCNL LTGCG S TS S MOV SE P0031
KMEM 062133Z 35010G17KT 3SM R36L/5000VP6000FT -TSRA FEW040CB SCT090 BKN120 16/12 A3006 RMK AO2 PK WND 34033/2109 WSHFT 2106 LTG DSNT E RAB07 TSB09 OCNL LTGCG OHD TS OHD MOV NE P0030 T01610117
KMEM 062128Z VRB05KT 1 3/4SM R36L/5000VP6000FT +TSRA FEW040CB SCT090 BKN120 16/12 A3006 RMK AO2 PK WND 34033/2109 WSHFT 2106 LTG DSNT NE AND E RAB07 TSB09 OCNL LTGCG OHD TS OHD MOV NE P0029 T01560122
KMEM 062120Z 36018G32KT 2 1/2SM +TSRA FEW040CB SCT090 BKN120 15/12 A3009 RMK AO2 PK WND 34033/2109 WSHFT 2106 LTG DSNT N-E RAB07 TSB09 PRESRR OCNL LCCG N TS MOV NE P0012 T01500117
KMEM 062109Z 34027G33KT 10SM -TSRA FEW040CB SCT090 BKN120 21/09 A3008 RMK AO2 PK WND 34033/2109 LTG DSNT NW-E RAB07 TSB09 PRESRR CB NW-NE MOV SE P0000 T02110094
KMEM 062054Z 22010KT 10SM FEW040 SCT090 BKN120 22/09 A3005 RMK AO2 LTG DSNT NW-NE SLP173 VCSH NW-NE T02220089 56031
KMEM 062018Z 24010KT 10SM FEW040 SCT100 BKN250 24/09 A3006 RMK AO2 LTG DSNT NW T02390094
KMEM 061954Z 19012G16KT 10SM FEW050 SCT250 23/11 A3007 RMK AO2 SLP180 T02330106
KMEM 061854Z VRB05G17KT 10SM FEW048 SCT250 23/11 A3010 RMK AO2 SLP190 T02330111
KMEM 061754Z 23008KT 10SM FEW048 FEW250 22/10 A3014 RMK AO2 SLP204 T02220100 10222 20122 58019
KMEM 061654Z 28006KT 10SM CLR 22/09 A3017 RMK AO2 SLP214 T02170094